Time;durP1;ratioP1;P1;durP2;ratioP2;P2;SDS_P1;SDS_P2;PMS_P1;PMS_P2;Temp;Humidity;BMP_temperature;BMP_pressure;BME280_temperature;BME280_humidity;BME280_pressure;Samples;Min_cycle;Max_cycle;Signal;HPM_P1;HPM_P2
2021/01/23 00:02:03;;;;;;;6.57;5.55;;;4.30;99.90;;;;;;5080535;28;20241;-84
2021/01/23 00:04:30;;;;;;;7.97;5.68;;;4.10;99.90;;;;;;5080233;28;20774;-85
2021/01/23 00:06:57;;;;;;;9.32;5.53;;;4.10;99.90;;;;;;5080320;28;20294;-84
2021/01/23 00:09:23;;;;;;;8.10;5.68;;;4.10;99.90;;;;;;5080784;28;20206;-84
2021/01/23 00:11:50;;;;;;;7.93;5.63;;;4.00;99.90;;;;;;5080528;28;20770;-84
2021/01/23 00:14:17;;;;;;;6.20;5.60;;;3.80;99.90;;;;;;5081877;28;20205;-84
2021/01/23 00:16:43;;;;;;;5.40;4.90;;;3.80;99.90;;;;;;5080812;28;20313;-85
2021/01/23 00:19:10;;;;;;;9.20;6.43;;;3.80;99.90;;;;;;5081063;28;20633;-85
2021/01/23 00:21:36;;;;;;;7.05;6.45;;;3.80;99.90;;;;;;5080399;28;20289;-84
2021/01/23 00:24:03;;;;;;;9.77;6.57;;;3.80;99.90;;;;;;5080368;28;20228;-84
2021/01/23 00:26:29;;;;;;;11.68;7.53;;;3.70;99.90;;;;;;5081204;28;20237;-84
2021/01/23 00:28:57;;;;;;;13.88;8.13;;;3.90;99.90;;;;;;5080811;28;20202;-84
2021/01/23 00:31:23;;;;;;;14.63;8.52;;;4.10;99.90;;;;;;5081682;28;20281;-85
2021/01/23 00:33:50;;;;;;;12.25;7.72;;;4.20;99.90;;;;;;5081555;28;20214;-85
2021/01/23 00:36:16;;;;;;;10.55;8.10;;;4.20;99.90;;;;;;5080673;28;20219;-84
2021/01/23 00:38:44;;;;;;;12.50;9.05;;;4.20;99.90;;;;;;5080559;28;20303;-84
2021/01/23 00:41:11;;;;;;;10.00;8.20;;;4.30;99.90;;;;;;5081541;28;20210;-84
2021/01/23 00:43:37;;;;;;;11.95;8.75;;;4.20;99.90;;;;;;5085800;28;20287;-84
2021/01/23 00:46:05;;;;;;;9.95;7.30;;;4.10;99.90;;;;;;5081338;28;20202;-83
2021/01/23 00:48:31;;;;;;;15.25;9.07;;;4.20;99.90;;;;;;5080249;28;20222;-85
2021/01/23 00:50:57;;;;;;;12.57;8.43;;;4.20;99.90;;;;;;5079684;28;20271;-84
2021/01/23 00:53:24;;;;;;;11.82;8.50;;;4.30;99.90;;;;;;5079705;28;20206;-84
2021/01/23 00:55:50;;;;;;;12.07;9.52;;;4.30;99.90;;;;;;5077260;28;20241;-83
2021/01/23 00:58:16;;;;;;;14.73;9.77;;;4.40;99.90;;;;;;5078230;28;20224;-83
2021/01/23 01:00:42;;;;;;;25.25;16.30;;;4.50;99.90;;;;;;5077645;28;20292;-85
2021/01/23 01:03:10;;;;;;;13.07;10.32;;;4.80;99.90;;;;;;5077806;28;20218;-84
2021/01/23 01:05:36;;;;;;;10.75;9.05;;;4.90;99.90;;;;;;5078449;28;20288;-84
2021/01/23 01:08:02;;;;;;;9.70;7.40;;;5.00;99.90;;;;;;5078827;28;20243;-84
2021/01/23 01:10:29;;;;;;;10.32;7.20;;;4.90;99.90;;;;;;5079176;28;20207;-84
2021/01/23 01:12:56;;;;;;;13.15;8.68;;;5.00;99.90;;;;;;5078183;28;20202;-84
2021/01/23 01:15:22;;;;;;;13.95;9.60;;;5.00;99.90;;;;;;5077170;28;20296;-83
2021/01/23 01:18:04;;;;;;;12.70;8.02;;;4.90;99.90;;;;;;5211447;22;20293;-87
2021/01/23 01:27:02;;;;;;;11.05;9.38;;;4.70;99.90;;;;;;5072787;28;20593;-87
2021/01/23 01:34:15;;;;;;;12.40;9.75;;;4.70;99.90;;;;;;4960275;28;20240;-86
2021/01/23 01:37:05;;;;;;;12.65;9.82;;;4.70;99.90;;;;;;4978380;28;20423;-86
2021/01/23 01:42:47;;;;;;;12.88;9.50;;;4.80;99.90;;;;;;4975748;28;20209;-87
2021/01/23 01:49:04;;;;;;;13.80;10.13;;;4.80;99.90;;;;;;4997920;28;20234;-87
2021/01/23 01:51:41;;;;;;;16.98;11.05;;;4.60;99.90;;;;;;5060114;28;20297;-85
2021/01/23 01:54:27;;;;;;;14.45;10.20;;;4.40;99.90;;;;;;5068442;28;20203;-85
2021/01/23 01:59:55;;;;;;;13.45;9.93;;;4.20;99.90;;;;;;5046618;28;20211;-86
2021/01/23 02:06:01;;;;;;;12.80;9.85;;;4.00;99.90;;;;;;5048459;28;20203;-86
2021/01/23 02:11:31;;;;;;;12.45;8.98;;;3.90;99.90;;;;;;5092564;28;20193;-86
2021/01/23 02:14:10;;;;;;;11.35;9.60;;;3.90;99.90;;;;;;5076338;28;20264;-86
2021/01/23 02:20:12;;;;;;;10.98;9.32;;;3.90;99.90;;;;;;5088725;22;20230;-86
2021/01/23 02:27:14;;;;;;;14.93;9.77;;;3.90;99.90;;;;;;4982336;28;20244;-86
2021/01/23 02:30:19;;;;;;;10.55;9.50;;;3.80;99.90;;;;;;4962398;29;20206;-86
2021/01/23 02:32:49;;;;;;;13.07;9.75;;;3.80;99.90;;;;;;5029950;22;20226;-85
2021/01/23 02:35:17;;;;;;;12.98;9.85;;;3.70;99.90;;;;;;5081912;28;20216;-85
2021/01/23 02:37:45;;;;;;;15.05;10.38;;;3.70;99.90;;;;;;5082215;28;20206;-84
2021/01/23 02:40:12;;;;;;;12.35;9.63;;;3.70;99.90;;;;;;5082918;28;20206;-85
2021/01/23 02:42:41;;;;;;;13.70;10.20;;;3.60;99.90;;;;;;5082495;28;20222;-85
2021/01/23 02:45:11;;;;;;;12.20;9.30;;;3.50;99.90;;;;;;5082822;28;20220;-85
2021/01/23 02:47:40;;;;;;;12.18;9.15;;;3.60;99.90;;;;;;5098984;28;20193;-82
2021/01/23 02:50:09;;;;;;;12.88;10.50;;;3.60;99.90;;;;;;5101363;28;20249;-83
2021/01/23 02:52:46;;;;;;;13.88;10.02;;;3.60;99.90;;;;;;5100709;28;20282;-82
2021/01/23 02:55:18;;;;;;;10.35;9.43;;;3.50;99.90;;;;;;5094448;28;20206;-84
2021/01/23 02:57:48;;;;;;;11.45;8.98;;;3.40;99.90;;;;;;5083224;28;20265;-84
2021/01/23 03:00:17;;;;;;;13.02;9.23;;;3.40;99.90;;;;;;5082961;28;20273;-84
2021/01/23 03:02:51;;;;;;;10.57;9.23;;;3.50;99.90;;;;;;5082238;28;20271;-84
2021/01/23 03:05:19;;;;;;;11.27;10.07;;;3.70;99.90;;;;;;5082063;28;20190;-84
2021/01/23 03:07:52;;;;;;;10.15;8.90;;;3.50;99.90;;;;;;5084619;28;20229;-84
2021/01/23 03:10:18;;;;;;;9.98;8.98;;;3.50;99.90;;;;;;5082947;28;20269;-84
2021/01/23 03:12:45;;;;;;;10.40;8.55;;;3.40;99.90;;;;;;5082164;28;20226;-84
2021/01/23 03:15:12;;;;;;;10.25;9.13;;;3.40;99.90;;;;;;5080592;28;20191;-84
2021/01/23 03:17:40;;;;;;;11.15;9.52;;;3.50;99.90;;;;;;5081270;28;20289;-84
2021/01/23 03:20:10;;;;;;;13.45;9.70;;;3.60;99.90;;;;;;5081212;28;20202;-84
2021/01/23 03:22:37;;;;;;;11.35;9.25;;;3.60;99.90;;;;;;5081806;28;20222;-84
2021/01/23 03:25:04;;;;;;;12.20;10.27;;;3.60;99.90;;;;;;5082204;28;20289;-84
2021/01/23 03:27:30;;;;;;;14.65;9.85;;;3.50;99.90;;;;;;5082159;28;20205;-84
2021/01/23 03:29:57;;;;;;;10.90;8.52;;;3.50;99.90;;;;;;5080443;28;20297;-84
2021/01/23 03:32:23;;;;;;;17.60;11.68;;;3.50;99.90;;;;;;5081820;28;20255;-84
2021/01/23 03:34:50;;;;;;;15.32;9.70;;;3.60;99.90;;;;;;5081522;28;20258;-84
2021/01/23 03:37:16;;;;;;;12.60;9.10;;;3.60;99.90;;;;;;5080806;28;20202;-84
2021/01/23 03:39:43;;;;;;;13.25;8.82;;;3.60;99.90;;;;;;5081460;28;20240;-83
2021/01/23 03:42:10;;;;;;;10.70;9.65;;;3.60;99.90;;;;;;5081178;28;20222;-86
2021/01/23 03:44:36;;;;;;;12.20;10.90;;;3.60;99.90;;;;;;5080846;28;20837;-85
2021/01/23 03:47:05;;;;;;;13.10;9.60;;;3.60;99.90;;;;;;5080683;28;20202;-85
2021/01/23 03:49:31;;;;;;;10.75;9.43;;;3.70;99.90;;;;;;5081045;28;20207;-85
2021/01/23 03:51:58;;;;;;;17.27;11.45;;;3.70;99.90;;;;;;5081940;28;20322;-85
2021/01/23 03:54:24;;;;;;;16.48;9.40;;;3.70;99.90;;;;;;5082496;28;20199;-85
2021/01/23 03:56:51;;;;;;;12.57;10.07;;;3.80;99.90;;;;;;5080981;28;20270;-85
2021/01/23 03:59:18;;;;;;;17.55;10.23;;;3.80;99.90;;;;;;5081919;28;20237;-85
2021/01/23 04:01:44;;;;;;;13.98;9.70;;;3.80;99.90;;;;;;5082154;28;20265;-85
2021/01/23 04:04:11;;;;;;;11.70;9.63;;;3.90;99.90;;;;;;5080594;28;20317;-85
2021/01/23 04:06:40;;;;;;;10.98;9.30;;;3.80;99.90;;;;;;5081665;28;20229;-85
2021/01/23 04:09:07;;;;;;;15.55;10.07;;;3.80;99.90;;;;;;5081832;28;20293;-84
2021/01/23 04:11:33;;;;;;;11.65;8.55;;;3.70;99.90;;;;;;5086296;28;20206;-85
2021/01/23 04:14:04;;;;;;;10.63;9.43;;;3.80;99.90;;;;;;5091893;28;20285;-85
2021/01/23 04:16:32;;;;;;;12.93;10.27;;;3.60;99.90;;;;;;5091896;28;20194;-84
2021/01/23 04:18:58;;;;;;;12.30;9.18;;;3.60;99.90;;;;;;5083787;28;20289;-85
2021/01/23 04:21:24;;;;;;;15.52;10.70;;;3.50;99.90;;;;;;5083679;28;20718;-85
2021/01/23 04:23:51;;;;;;;13.20;10.55;;;3.50;99.90;;;;;;5089658;28;20210;-83
2021/01/23 04:26:17;;;;;;;14.68;10.30;;;3.50;99.90;;;;;;5096914;28;20186;-83
2021/01/23 04:28:43;;;;;;;10.25;9.00;;;3.50;99.90;;;;;;5097263;28;20265;-83
2021/01/23 04:31:11;;;;;;;12.65;9.65;;;3.50;99.90;;;;;;5097166;28;20314;-83
2021/01/23 04:33:37;;;;;;;12.48;9.20;;;3.50;99.90;;;;;;5096625;28;20229;-83
2021/01/23 04:36:04;;;;;;;14.20;10.13;;;3.50;99.90;;;;;;5083293;28;20202;-85
2021/01/23 04:38:30;;;;;;;13.05;9.95;;;3.50;99.90;;;;;;5079146;28;20210;-85
2021/01/23 04:40:57;;;;;;;12.65;9.63;;;3.50;99.90;;;;;;5079438;28;20334;-85
2021/01/23 04:43:24;;;;;;;12.27;8.43;;;3.60;99.90;;;;;;5078672;28;20225;-83
2021/01/23 04:45:50;;;;;;;13.70;9.27;;;3.70;99.90;;;;;;5077800;28;20491;-84
2021/01/23 04:48:18;;;;;;;13.30;10.45;;;3.70;99.90;;;;;;5078159;28;20529;-83
2021/01/23 04:50:44;;;;;;;13.18;10.30;;;3.70;99.90;;;;;;5078416;28;20581;-84
2021/01/23 04:53:11;;;;;;;13.32;11.23;;;3.70;99.90;;;;;;5078469;28;20224;-84
2021/01/23 04:55:38;;;;;;;13.00;9.68;;;3.70;99.90;;;;;;5094513;28;20434;-82
2021/01/23 04:58:04;;;;;;;14.25;10.80;;;3.70;99.90;;;;;;5096636;28;20133;-82
2021/01/23 05:00:30;;;;;;;13.43;9.70;;;3.80;99.90;;;;;;5093075;28;20209;-84
2021/01/23 05:03:01;;;;;;;13.68;10.45;;;3.80;99.90;;;;;;5077819;28;20433;-84
2021/01/23 05:05:29;;;;;;;12.35;9.40;;;3.90;99.90;;;;;;5079428;28;20206;-85
2021/01/23 05:08:06;;;;;;;15.20;9.90;;;3.90;99.90;;;;;;5078464;28;20202;-84
2021/01/23 05:10:33;;;;;;;14.70;9.98;;;3.80;99.90;;;;;;5080826;28;20204;-84
2021/01/23 05:13:00;;;;;;;15.75;9.88;;;3.80;99.90;;;;;;5080359;28;20594;-84
2021/01/23 05:15:28;;;;;;;13.30;9.13;;;3.60;99.90;;;;;;5080769;28;20198;-84
2021/01/23 05:17:56;;;;;;;10.98;9.73;;;3.50;99.90;;;;;;5084016;28;20213;-84
2021/01/23 05:20:32;;;;;;;13.00;10.02;;;3.60;99.90;;;;;;5082756;28;20491;-84
2021/01/23 05:22:59;;;;;;;15.60;10.75;;;3.70;99.90;;;;;;5078190;28;20810;-84
2021/01/23 05:25:29;;;;;;;15.70;10.65;;;3.80;99.90;;;;;;5077737;28;20446;-84
2021/01/23 05:27:56;;;;;;;12.77;9.77;;;3.80;99.90;;;;;;5079000;28;20212;-85
2021/01/23 05:30:24;;;;;;;16.17;11.93;;;3.60;99.90;;;;;;5078835;28;20294;-85
2021/01/23 05:33:07;;;;;;;18.05;10.32;;;3.70;99.90;;;;;;5079252;28;20317;-88
2021/01/23 05:35:34;;;;;;;13.95;9.90;;;3.70;99.90;;;;;;5078841;28;20220;-84
2021/01/23 05:38:17;;;;;;;11.95;9.75;;;3.60;99.90;;;;;;5078319;28;20316;-86
2021/01/23 05:40:43;;;;;;;13.98;10.52;;;3.50;99.90;;;;;;5078285;28;20277;-85
2021/01/23 05:43:10;;;;;;;16.02;10.57;;;3.60;99.90;;;;;;5078354;28;20621;-85
2021/01/23 05:45:36;;;;;;;14.05;9.70;;;3.70;99.90;;;;;;5078025;28;20444;-85
2021/01/23 05:48:09;;;;;;;17.23;10.70;;;3.80;99.90;;;;;;5078435;28;20473;-85
2021/01/23 05:50:36;;;;;;;19.27;9.77;;;3.80;99.90;;;;;;5079053;28;20255;-85
2021/01/23 05:53:02;;;;;;;13.73;10.35;;;3.80;99.90;;;;;;5080335;28;20229;-85
2021/01/23 05:55:29;;;;;;;17.90;10.90;;;3.90;99.90;;;;;;5089682;28;20278;-84
2021/01/23 05:57:56;;;;;;;14.30;10.85;;;3.80;99.90;;;;;;5094477;28;20254;-84
2021/01/23 06:00:24;;;;;;;12.18;9.45;;;3.70;99.90;;;;;;5089064;28;20256;-85
2021/01/23 06:02:51;;;;;;;12.63;10.27;;;3.70;99.90;;;;;;5090048;28;20268;-83
2021/01/23 06:05:18;;;;;;;11.73;9.95;;;3.60;99.90;;;;;;5089592;28;20682;-85
2021/01/23 06:07:49;;;;;;;15.32;10.73;;;3.60;99.90;;;;;;5079233;28;20209;-86
2021/01/23 06:10:44;;;;;;;12.32;9.50;;;3.60;99.90;;;;;;5078480;28;20263;-85
2021/01/23 06:13:39;;;;;;;14.82;9.98;;;3.70;99.90;;;;;;5078202;28;20226;-85
2021/01/23 06:16:06;;;;;;;13.00;10.40;;;3.80;99.90;;;;;;5083636;28;20210;-86
2021/01/23 06:18:32;;;;;;;18.60;9.75;;;3.70;99.90;;;;;;5090565;28;20202;-85
2021/01/23 06:21:00;;;;;;;12.35;9.77;;;3.70;99.90;;;;;;5078561;28;20293;-85
2021/01/23 06:23:51;;;;;;;13.50;10.65;;;3.60;99.90;;;;;;5078197;28;20714;-85
2021/01/23 06:26:19;;;;;;;12.80;9.38;;;3.70;99.90;;;;;;5098305;28;20191;-83
2021/01/23 06:28:55;;;;;;;19.73;11.45;;;3.70;99.90;;;;;;5090717;28;20290;-83
2021/01/23 06:31:35;;;;;;;14.60;11.05;;;3.70;99.90;;;;;;5075622;28;20229;-83
2021/01/23 06:34:27;;;;;;;15.55;10.38;;;3.70;99.90;;;;;;5075856;28;20238;-83
2021/01/23 06:37:18;;;;;;;18.38;10.80;;;3.70;99.90;;;;;;5086110;28;20246;-85
2021/01/23 06:40:13;;;;;;;16.15;11.38;;;3.80;99.90;;;;;;5087956;28;20246;-83
2021/01/23 06:42:45;;;;;;;17.58;11.40;;;3.80;99.90;;;;;;5081505;28;20229;-85
2021/01/23 06:45:20;;;;;;;13.90;10.27;;;3.80;99.90;;;;;;5078404;28;20211;-84
2021/01/23 06:47:48;;;;;;;23.00;12.07;;;3.80;99.90;;;;;;5079825;28;20288;-85
2021/01/23 06:50:34;;;;;;;14.63;9.88;;;3.80;99.90;;;;;;5079743;28;20202;-85
2021/01/23 06:53:02;;;;;;;15.48;11.15;;;3.90;99.90;;;;;;5081829;28;20222;-85
2021/01/23 06:55:56;;;;;;;25.25;11.25;;;3.90;99.90;;;;;;5081243;28;20206;-85
2021/01/23 06:58:25;;;;;;;13.65;10.30;;;3.90;99.90;;;;;;5023130;28;20202;-85
2021/01/23 07:00:52;;;;;;;16.77;11.52;;;4.10;99.90;;;;;;5081187;28;20202;-84
2021/01/23 07:03:20;;;;;;;14.50;11.32;;;4.10;99.90;;;;;;5089725;28;20281;-82
2021/01/23 07:05:48;;;;;;;18.33;13.05;;;4.20;99.90;;;;;;5083306;28;20193;-84
2021/01/23 07:08:26;;;;;;;17.70;11.80;;;4.30;99.90;;;;;;5080211;28;20205;-84
2021/01/23 07:11:14;;;;;;;19.15;11.68;;;4.30;99.90;;;;;;5080708;28;20182;-84
2021/01/23 07:13:56;;;;;;;14.00;11.48;;;4.20;99.90;;;;;;5091809;28;20225;-84
2021/01/23 07:16:23;;;;;;;22.25;12.45;;;4.20;99.90;;;;;;5100249;28;20186;-85
2021/01/23 07:18:52;;;;;;;20.73;13.38;;;4.20;99.90;;;;;;5099298;28;20271;-84
2021/01/23 07:21:21;;;;;;;21.17;14.73;;;4.20;99.90;;;;;;5083554;28;20218;-84
2021/01/23 07:23:48;;;;;;;19.02;12.85;;;4.30;99.90;;;;;;5081792;28;20230;-85
2021/01/23 07:26:15;;;;;;;20.52;14.18;;;4.30;99.90;;;;;;5081402;28;20206;-84
2021/01/23 07:28:45;;;;;;;19.80;13.65;;;4.30;99.90;;;;;;5081404;28;20202;-83
2021/01/23 07:31:19;;;;;;;20.40;13.07;;;4.10;99.90;;;;;;5081574;28;20217;-85
2021/01/23 07:33:45;;;;;;;17.58;13.80;;;4.10;99.90;;;;;;5079774;28;20225;-85
2021/01/23 07:36:26;;;;;;;17.73;12.38;;;3.90;99.90;;;;;;5080655;28;20212;-85
2021/01/23 07:38:53;;;;;;;16.10;13.15;;;3.90;99.90;;;;;;5081223;28;20277;-85
2021/01/23 07:41:20;;;;;;;17.58;12.52;;;3.70;99.90;;;;;;5080410;28;20209;-85
2021/01/23 07:43:47;;;;;;;22.25;14.60;;;3.60;99.90;;;;;;5081071;28;20226;-84
2021/01/23 07:46:14;;;;;;;25.55;16.92;;;3.40;99.90;;;;;;5080258;28;20202;-85
2021/01/23 07:48:41;;;;;;;25.15;16.45;;;3.40;99.90;;;;;;5080536;28;20506;-85
2021/01/23 07:51:25;;;;;;;27.15;19.80;;;3.30;99.90;;;;;;5079824;28;20807;-85
2021/01/23 07:54:12;;;;;;;28.70;19.92;;;3.30;99.90;;;;;;5081249;28;20434;-85
2021/01/23 07:56:53;;;;;;;26.45;16.55;;;3.30;99.90;;;;;;5082798;28;20249;-85
2021/01/23 07:59:20;;;;;;;27.65;18.15;;;3.30;99.90;;;;;;5082259;28;20204;-85
2021/01/23 08:01:46;;;;;;;24.52;17.77;;;3.30;99.90;;;;;;5094593;28;20266;-81
2021/01/23 08:04:36;;;;;;;27.77;17.00;;;3.30;99.90;;;;;;5099791;28;20237;-82
2021/01/23 08:07:21;;;;;;;22.25;13.85;;;3.30;99.90;;;;;;5099691;28;20186;-85
2021/01/23 08:10:07;;;;;;;30.63;15.80;;;3.20;99.90;;;;;;5091323;28;20619;-85
2021/01/23 08:12:34;;;;;;;21.55;15.77;;;3.00;99.90;;;;;;5081132;28;20218;-85
2021/01/23 08:15:00;;;;;;;21.63;14.55;;;3.00;99.90;;;;;;5090826;28;20266;-85
2021/01/23 08:17:40;;;;;;;22.00;15.93;;;2.80;99.90;;;;;;5081382;28;20446;-85
2021/01/23 08:20:08;;;;;;;27.58;16.17;;;2.90;99.90;;;;;;5082565;28;20214;-85
2021/01/23 08:22:58;;;;;;;24.58;18.08;;;3.00;99.90;;;;;;5080234;28;20438;-86
2021/01/23 08:25:27;;;;;;;23.33;16.33;;;2.90;99.90;;;;;;5081338;28;20888;-85
2021/01/23 08:27:55;;;;;;;27.15;17.55;;;2.90;99.90;;;;;;5062187;28;20736;-86
2021/01/23 08:30:23;;;;;;;26.00;15.57;;;2.80;99.90;;;;;;5080955;28;20237;-85
2021/01/23 08:33:23;;;;;;;26.13;15.83;;;2.70;99.90;;;;;;5077129;22;609418;-85
2021/01/23 08:36:02;;;;;;;23.95;15.60;;;2.70;99.90;;;;;;5080699;28;20428;-86
2021/01/23 08:38:33;;;;;;;21.58;14.65;;;2.80;99.90;;;;;;5081610;28;20182;-86
2021/01/23 08:41:00;;;;;;;26.17;14.85;;;2.60;99.90;;;;;;5081400;28;20202;-86
2021/01/23 08:43:31;;;;;;;23.10;14.40;;;2.60;99.90;;;;;;5085802;28;20223;-88
2021/01/23 08:46:09;;;;;;;24.20;15.85;;;2.60;99.90;;;;;;5083679;28;20206;-88
2021/01/23 08:49:00;;;;;;;24.63;15.48;;;2.60;99.90;;;;;;5080731;28;20206;-88
2021/01/23 09:14:35;;;;;;;23.50;14.13;;;2.50;99.90;;;;;;5201858;22;20850;-85
2021/01/23 09:17:18;;;;;;;25.67;16.15;;;2.50;99.90;;;;;;5076135;28;20201;-85
2021/01/23 09:20:38;;;;;;;28.42;18.45;;;2.40;99.90;;;;;;5076834;28;20182;-85
2021/01/23 09:26:38;;;;;;;34.92;19.50;;;2.30;99.90;;;;;;4922834;28;20442;-86
2021/01/23 09:29:05;;;;;;;28.65;18.60;;;2.30;99.90;;;;;;5077703;22;20287;-84
2021/01/23 09:31:31;;;;;;;28.45;16.52;;;2.10;99.90;;;;;;5089480;28;20186;-85
2021/01/23 09:33:57;;;;;;;25.48;16.90;;;2.10;99.90;;;;;;5095284;28;20190;-81
2021/01/23 09:36:25;;;;;;;24.65;17.40;;;2.00;99.90;;;;;;5096516;28;20263;-84
2021/01/23 09:38:52;;;;;;;27.13;18.30;;;2.00;99.90;;;;;;5091401;28;20229;-85
2021/01/23 09:41:18;;;;;;;26.75;17.73;;;1.90;99.90;;;;;;5097808;28;20253;-84
2021/01/23 09:43:46;;;;;;;36.00;21.38;;;2.00;99.90;;;;;;5087423;28;20218;-84
2021/01/23 09:46:15;;;;;;;31.20;19.42;;;1.90;99.90;;;;;;5079030;28;20214;-84
2021/01/23 09:48:41;;;;;;;39.90;23.50;;;1.90;99.90;;;;;;5078683;28;20264;-84
2021/01/23 09:51:08;;;;;;;32.60;22.55;;;1.90;99.90;;;;;;5077769;28;20195;-84
2021/01/23 09:53:35;;;;;;;32.80;22.83;;;2.00;99.90;;;;;;5078004;28;20225;-84
2021/01/23 09:56:01;;;;;;;47.50;29.17;;;1.90;99.90;;;;;;5077253;28;20558;-83
2021/01/23 09:58:27;;;;;;;47.50;28.13;;;2.00;99.90;;;;;;5076700;28;20251;-84
2021/01/23 10:00:57;;;;;;;49.90;30.50;;;2.00;99.90;;;;;;5077380;28;20206;-85
2021/01/23 10:03:23;;;;;;;45.80;28.95;;;1.90;99.90;;;;;;5077022;28;20666;-85
2021/01/23 10:05:49;;;;;;;36.95;24.00;;;2.00;99.90;;;;;;5077148;28;20225;-84
2021/01/23 10:08:16;;;;;;;37.05;22.98;;;2.00;99.90;;;;;;5077201;28;20698;-84
2021/01/23 10:10:42;;;;;;;36.97;20.85;;;2.00;99.90;;;;;;5077118;28;20288;-84
2021/01/23 10:13:10;;;;;;;44.30;26.15;;;2.00;99.90;;;;;;5076455;28;20442;-85
2021/01/23 10:15:37;;;;;;;40.75;25.27;;;1.90;99.90;;;;;;5076993;28;20251;-84
2021/01/23 10:18:05;;;;;;;43.13;25.52;;;1.90;99.90;;;;;;5078082;28;20313;-84
2021/01/23 10:20:32;;;;;;;45.03;27.10;;;2.00;99.90;;;;;;5077552;28;20233;-84
2021/01/23 10:22:59;;;;;;;37.20;22.65;;;2.00;99.90;;;;;;5084678;28;20202;-83
2021/01/23 10:25:25;;;;;;;40.58;24.13;;;2.10;99.90;;;;;;5088661;28;20325;-84
2021/01/23 10:27:51;;;;;;;39.80;21.77;;;2.10;99.90;;;;;;5083788;28;20237;-84
2021/01/23 10:30:18;;;;;;;36.05;22.55;;;2.20;99.90;;;;;;5083596;28;20693;-84
2021/01/23 10:32:45;;;;;;;30.95;21.13;;;2.20;99.90;;;;;;5082892;28;20355;-84
2021/01/23 10:35:13;;;;;;;31.77;20.58;;;2.00;99.90;;;;;;5082652;28;20274;-84
2021/01/23 10:37:40;;;;;;;37.15;21.67;;;2.00;99.90;;;;;;5087956;28;20544;-84
2021/01/23 10:40:07;;;;;;;34.20;21.35;;;2.20;99.90;;;;;;5090929;28;20503;-84
2021/01/23 10:42:33;;;;;;;33.10;19.15;;;2.10;99.90;;;;;;5097298;28;20270;-84
2021/01/23 10:45:00;;;;;;;34.97;19.05;;;2.20;99.90;;;;;;5098228;28;20222;-83
2021/01/23 10:47:26;;;;;;;25.40;16.80;;;2.10;99.90;;;;;;5098960;28;20270;-84
2021/01/23 10:49:53;;;;;;;24.17;18.27;;;2.10;99.90;;;;;;5098390;28;20202;-84
2021/01/23 10:52:20;;;;;;;27.98;18.40;;;2.00;99.90;;;;;;5086777;28;20217;-84
2021/01/23 10:54:46;;;;;;;33.83;18.10;;;2.00;99.90;;;;;;5083445;28;20343;-84
2021/01/23 10:57:13;;;;;;;25.65;17.67;;;2.10;99.90;;;;;;5082389;28;20210;-85
2021/01/23 10:59:39;;;;;;;32.53;18.10;;;2.00;99.90;;;;;;5082703;28;20237;-84
2021/01/23 11:02:05;;;;;;;23.58;15.52;;;2.00;99.90;;;;;;5085792;28;20206;-85
2021/01/23 11:04:32;;;;;;;27.80;16.15;;;2.00;99.90;;;;;;5094441;28;20309;-83
2021/01/23 11:06:59;;;;;;;25.70;14.98;;;2.10;99.90;;;;;;5096035;28;20241;-83
2021/01/23 11:09:26;;;;;;;25.35;16.05;;;2.10;99.90;;;;;;5099045;28;20222;-84
2021/01/23 11:11:52;;;;;;;25.88;14.38;;;2.10;99.90;;;;;;5099347;28;20261;-85
2021/01/23 11:14:18;;;;;;;22.40;14.43;;;2.10;99.90;;;;;;5100283;28;20250;-83
2021/01/23 11:16:47;;;;;;;16.25;9.57;;;2.30;99.90;;;;;;5100471;28;20191;-83
2021/01/23 11:19:13;;;;;;;39.40;20.02;;;2.30;99.90;;;;;;5099747;28;20277;-84
2021/01/23 11:21:39;;;;;;;14.30;9.77;;;2.30;99.90;;;;;;5085289;28;20210;-84
2021/01/23 11:24:07;;;;;;;14.90;9.80;;;2.30;99.90;;;;;;5082614;28;20289;-84
2021/01/23 11:26:34;;;;;;;17.92;10.15;;;2.20;99.90;;;;;;5077430;28;20210;-84
2021/01/23 11:29:00;;;;;;;13.85;8.73;;;2.30;99.90;;;;;;5085501;28;20320;-84
2021/01/23 11:31:27;;;;;;;14.40;10.00;;;2.30;99.90;;;;;;5083114;28;20207;-84
2021/01/23 11:33:53;;;;;;;15.85;8.57;;;2.20;99.90;;;;;;5081800;28;20616;-84
2021/01/23 11:36:20;;;;;;;14.13;9.32;;;2.20;99.90;;;;;;5083921;28;20285;-84
2021/01/23 11:38:46;;;;;;;14.82;8.82;;;2.30;99.90;;;;;;5088637;28;20222;-83
2021/01/23 11:41:12;;;;;;;11.63;8.15;;;2.30;99.90;;;;;;5090413;28;20266;-84
2021/01/23 11:43:39;;;;;;;11.85;8.50;;;2.30;99.90;;;;;;5095827;28;20338;-84
2021/01/23 11:46:07;;;;;;;16.95;10.07;;;2.40;99.90;;;;;;5092840;28;20293;-84
2021/01/23 11:48:33;;;;;;;13.75;8.93;;;2.40;99.90;;;;;;5095052;28;20230;-85
2021/01/23 11:51:00;;;;;;;14.05;8.95;;;2.40;99.90;;;;;;5093714;28;20265;-84
2021/01/23 11:53:26;;;;;;;16.35;9.13;;;2.50;99.90;;;;;;5085121;28;20198;-85
2021/01/23 11:55:52;;;;;;;18.83;9.38;;;2.50;99.90;;;;;;5083505;28;20262;-84
2021/01/23 11:58:19;;;;;;;18.33;8.57;;;2.50;99.90;;;;;;5083402;28;20286;-85
2021/01/23 12:00:46;;;;;;;14.38;9.00;;;2.50;99.90;;;;;;5082180;28;20222;-85
2021/01/23 12:03:12;;;;;;;10.65;7.28;;;2.60;99.90;;;;;;5083175;28;20300;-85
2021/01/23 12:05:39;;;;;;;13.68;7.50;;;2.60;99.90;;;;;;5081863;28;20222;-86
2021/01/23 12:08:05;;;;;;;15.68;8.57;;;2.70;99.90;;;;;;5080771;28;20228;-85
2021/01/23 12:10:32;;;;;;;15.20;9.55;;;2.70;99.90;;;;;;5081810;28;20206;-86
2021/01/23 12:12:58;;;;;;;13.65;8.93;;;2.80;99.90;;;;;;5081242;28;20208;-85
2021/01/23 12:15:24;;;;;;;12.35;7.85;;;2.90;99.90;;;;;;5090607;28;20304;-86
2021/01/23 12:17:53;;;;;;;13.15;9.27;;;2.80;99.90;;;;;;5083371;28;20725;-84
2021/01/23 12:20:20;;;;;;;14.55;9.02;;;3.00;99.90;;;;;;5082390;28;20606;-86
2021/01/23 12:22:46;;;;;;;14.73;9.45;;;3.00;99.90;;;;;;5082995;28;20233;-86
2021/01/23 12:25:14;;;;;;;19.55;10.07;;;3.00;99.90;;;;;;5085657;28;20368;-83
2021/01/23 12:27:41;;;;;;;16.38;9.20;;;3.10;99.90;;;;;;5087447;28;20250;-86
2021/01/23 12:30:09;;;;;;;17.73;10.20;;;3.10;99.90;;;;;;5094595;28;20229;-85
2021/01/23 12:32:35;;;;;;;18.48;9.77;;;3.10;99.90;;;;;;5085507;28;20206;-87
2021/01/23 12:35:03;;;;;;;19.95;10.60;;;3.20;99.90;;;;;;5087604;28;20198;-86
2021/01/23 12:37:30;;;;;;;17.50;10.80;;;3.20;99.90;;;;;;5087637;28;20305;-86
2021/01/23 12:39:57;;;;;;;19.35;13.07;;;3.10;99.90;;;;;;5086135;28;20207;-86
2021/01/23 12:42:23;;;;;;;28.58;15.88;;;3.60;99.90;;;;;;5082691;28;20217;-86
2021/01/23 12:44:50;;;;;;;19.48;10.35;;;3.70;99.90;;;;;;5083076;28;20229;-86
2021/01/23 12:47:16;;;;;;;19.45;11.52;;;3.60;99.90;;;;;;5085128;28;20293;-85
2021/01/23 12:49:42;;;;;;;17.60;10.82;;;3.70;99.90;;;;;;5082054;28;20540;-85
2021/01/23 12:52:10;;;;;;;18.45;12.40;;;3.80;99.90;;;;;;5081219;28;20202;-84
2021/01/23 12:54:36;;;;;;;14.90;9.40;;;3.70;99.90;;;;;;5082213;28;20237;-84
2021/01/23 12:57:04;;;;;;;23.23;10.40;;;3.70;99.90;;;;;;5083016;28;20752;-85
2021/01/23 12:59:31;;;;;;;19.92;10.88;;;3.60;99.90;;;;;;5081106;28;20206;-84
2021/01/23 13:01:57;;;;;;;16.92;10.55;;;3.60;99.90;;;;;;5081845;28;20202;-84
2021/01/23 13:04:23;;;;;;;17.17;10.15;;;3.70;99.90;;;;;;5083457;28;20226;-84
2021/01/23 13:06:50;;;;;;;18.45;13.52;;;3.70;99.90;;;;;;5082693;28;20293;-84
2021/01/23 13:09:17;;;;;;;27.42;16.88;;;3.60;99.90;;;;;;5082077;28;20309;-85
2021/01/23 13:11:43;;;;;;;28.13;18.08;;;3.70;99.90;;;;;;5089235;28;20285;-85
2021/01/23 13:14:10;;;;;;;32.28;16.50;;;3.70;99.90;;;;;;5090137;28;20202;-84
2021/01/23 13:16:36;;;;;;;24.95;15.98;;;3.70;99.90;;;;;;5085690;28;20666;-84
2021/01/23 13:19:03;;;;;;;29.38;17.48;;;3.60;99.90;;;;;;5082026;28;20233;-85
2021/01/23 13:21:29;;;;;;;30.00;18.40;;;3.70;99.90;;;;;;5084797;28;20202;-84
2021/01/23 13:23:56;;;;;;;30.45;17.15;;;3.70;99.90;;;;;;5087332;28;20209;-84
2021/01/23 13:26:23;;;;;;;25.15;17.58;;;3.80;99.90;;;;;;5097726;28;20197;-83
2021/01/23 13:28:49;;;;;;;32.45;17.98;;;3.70;99.90;;;;;;5098307;28;20277;-82
2021/01/23 13:31:15;;;;;;;26.95;15.75;;;3.80;99.90;;;;;;5098492;28;20265;-83
2021/01/23 13:33:42;;;;;;;32.13;17.83;;;3.70;99.90;;;;;;5095347;28;20190;-86
2021/01/23 13:36:08;;;;;;;28.70;17.75;;;3.80;99.90;;;;;;5097882;28;20213;-86
2021/01/23 13:38:35;;;;;;;26.98;16.48;;;3.70;99.90;;;;;;5093642;28;20305;-85
2021/01/23 13:41:01;;;;;;;28.98;17.77;;;3.90;99.90;;;;;;5089523;28;20265;-82
2021/01/23 13:43:30;;;;;;;26.60;17.80;;;3.80;99.90;;;;;;5085889;28;20203;-84
2021/01/23 13:45:56;;;;;;;29.73;18.58;;;3.70;99.90;;;;;;5086256;28;20228;-84
2021/01/23 13:48:23;;;;;;;30.48;19.05;;;3.70;99.90;;;;;;5087633;28;20218;-84
2021/01/23 13:50:49;;;;;;;28.75;19.23;;;3.80;99.90;;;;;;5089850;28;20237;-86
2021/01/23 13:53:15;;;;;;;26.27;18.23;;;3.80;99.90;;;;;;5094345;28;20232;-85
2021/01/23 13:55:42;;;;;;;32.25;19.67;;;3.80;99.90;;;;;;5094551;28;20282;-85